Time;durP1;ratioP1;P1;durP2;ratioP2;P2;SDS_P1;SDS_P2;PMS_P1;PMS_P2;Temp;Humidity;BMP_temperature;BMP_pressure;BME280_temperature;BME280_humidity;BME280_pressure;Samples;Min_cycle;Max_cycle;Signal;HPM_P1;HPM_P2
2021/05/16 00:03:25;;;;;;;7.28;5.10;;;;;;;13.30;100.00;99460.73;712469;1180;114542;-73
2021/05/16 00:18:45;;;;;;;8.05;5.83;;;;;;;13.34;100.00;99460.38;712586;1196;114443;-73
2021/05/16 00:34:06;;;;;;;9.47;5.80;;;;;;;13.07;100.00;99468.56;712621;1206;115557;-74
2021/05/16 00:49:26;;;;;;;11.03;6.60;;;;;;;13.20;100.00;99457.48;712467;1202;115102;-75
2021/05/16 01:04:47;;;;;;;8.17;6.40;;;;;;;13.09;100.00;99455.22;712528;1206;115321;-73
2021/05/16 01:20:10;;;;;;;14.93;7.20;;;;;;;13.09;100.00;99458.70;712681;1202;113772;-73
2021/05/16 01:35:32;;;;;;;15.68;9.15;;;;;;;13.05;100.00;99465.30;712695;1206;114459;-76
2021/05/16 01:50:53;;;;;;;14.23;9.13;;;;;;;12.87;100.00;99467.34;712278;1183;113870;-77
2021/05/16 02:06:14;;;;;;;14.53;9.23;;;;;;;12.64;100.00;99478.58;712778;1203;113977;-76
2021/05/16 02:21:34;;;;;;;14.70;8.35;;;;;;;12.41;100.00;99471.39;712523;1203;114981;-76
2021/05/16 02:36:55;;;;;;;12.60;8.23;;;;;;;12.25;100.00;99469.61;712544;1202;115338;-75
2021/05/16 02:52:15;;;;;;;13.50;9.00;;;;;;;12.19;100.00;99438.70;712805;1202;114943;-77
2021/05/16 03:07:36;;;;;;;15.08;10.33;;;;;;;12.10;100.00;99423.93;713204;1202;114053;-76
2021/05/16 03:22:56;;;;;;;14.48;8.95;;;;;;;12.03;100.00;99404.56;712939;1202;115123;-77
2021/05/16 03:38:17;;;;;;;11.68;8.40;;;;;;;11.98;100.00;99376.14;712514;1202;114696;-76
2021/05/16 03:53:38;;;;;;;11.80;8.60;;;;;;;12.00;100.00;99384.69;713085;1203;113892;-76
2021/05/16 04:08:59;;;;;;;11.87;8.27;;;;;;;12.36;100.00;99373.76;712811;1203;114229;-74
2021/05/16 04:24:19;;;;;;;11.77;8.03;;;;;;;12.52;100.00;99374.70;713535;1206;116503;-74
2021/05/16 04:39:40;;;;;;;12.15;8.75;;;;;;;12.76;100.00;99357.98;712859;1206;114335;-75
2021/05/16 04:55:00;;;;;;;9.53;7.50;;;;;;;12.96;100.00;99355.77;712876;1206;114167;-73
2021/05/16 05:10:20;;;;;;;9.60;7.40;;;;;;;13.31;100.00;99348.28;715506;1169;114174;-85
2021/05/16 05:25:41;;;;;;;33.18;18.10;;;;;;;13.78;100.00;99349.91;712412;1194;114179;-86
2021/05/16 05:41:02;;;;;;;12.47;8.97;;;;;;;14.39;100.00;99354.22;712254;1180;114918;-87
2021/05/16 05:56:23;;;;;;;12.75;7.88;;;;;;;14.98;100.00;99357.81;712267;1206;114700;-79
2021/05/16 06:11:43;;;;;;;8.00;5.83;;;;;;;15.33;100.00;99350.02;712293;1187;114086;-80
2021/05/16 06:27:03;;;;;;;6.50;5.77;;;;;;;16.33;100.00;99341.23;712291;1206;114522;-85
2021/05/16 06:42:26;;;;;;;6.20;5.23;;;;;;;16.30;100.00;99337.95;712388;1202;116209;-79
2021/05/16 06:57:46;;;;;;;5.50;4.70;;;;;;;16.74;100.00;99357.08;712677;1206;113889;-78
2021/05/16 07:13:06;;;;;;;5.70;4.20;;;;;;;16.56;100.00;99338.27;712471;1203;113830;-77
2021/05/16 07:28:26;;;;;;;7.23;6.40;;;;;;;17.65;100.00;99320.56;713134;1202;115060;-77
2021/05/16 07:43:47;;;;;;;17.18;8.33;;;;;;;18.23;97.37;99322.53;714303;1203;114601;-79
2021/05/16 07:59:08;;;;;;;12.40;5.50;;;;;;;18.89;92.30;99309.22;714318;1203;113896;-81
2021/05/16 08:14:29;;;;;;;5.63;3.93;;;;;;;19.82;90.32;99301.56;713717;1203;114214;-81
2021/05/16 08:29:49;;;;;;;6.80;3.60;;;;;;;20.52;82.47;99303.03;713044;1203;113559;-80
2021/05/16 08:45:12;;;;;;;5.63;4.30;;;;;;;20.69;81.96;99288.08;712834;1203;115042;-81
2021/05/16 09:00:45;;;;;;;4.67;3.13;;;;;;;20.23;79.19;99300.93;713010;1206;114242;-79
2021/05/16 09:16:09;;;;;;;7.75;4.58;;;;;;;20.39;78.87;99302.17;712302;1206;114298;-77
2021/05/16 09:31:34;;;;;;;4.57;4.07;;;;;;;20.30;79.10;99295.53;712482;1180;113534;-82
2021/05/16 09:47:13;;;;;;;5.10;4.40;;;;;;;19.67;81.01;99268.11;712449;1203;113819;-86
2021/05/16 10:02:33;;;;;;;5.68;4.23;;;;;;;21.00;79.32;99243.57;712422;1206;114569;-85
2021/05/16 10:17:56;;;;;;;8.28;4.83;;;;;;;20.04;76.60;99243.41;712723;1183;113555;-81
2021/05/16 10:33:33;;;;;;;3.97;3.33;;;;;;;19.36;81.10;99237.92;713029;1202;113493;-81
2021/05/16 10:49:27;;;;;;;123.48;73.50;;;;;;;18.19;91.83;99224.97;713547;1202;114134;-82
2021/05/16 11:04:50;;;;;;;16.95;8.35;;;;;;;18.60;95.81;99199.83;712782;1206;114930;-83
2021/05/16 11:20:12;;;;;;;16.90;9.70;;;;;;;17.14;99.45;99194.77;712977;1206;114264;-79
2021/05/16 11:35:37;;;;;;;9.67;6.57;;;;;;;16.32;100.00;99196.69;713194;1200;115117;-79
2021/05/16 11:51:03;;;;;;;7.15;5.95;;;;;;;15.42;100.00;99214.11;713136;1208;115114;-84
2021/05/16 12:06:25;;;;;;;15.80;11.03;;;;;;;16.06;100.00;99193.76;712863;1202;115202;-87
2021/05/16 12:21:49;;;;;;;7.28;5.65;;;;;;;17.01;100.00;99213.32;712728;1203;114215;-86
2021/05/16 12:37:32;;;;;;;123.73;62.05;;;;;;;15.25;100.00;99242.64;712850;1202;115429;-86
2021/05/16 12:52:52;;;;;;;27.07;19.13;;;;;;;14.97;100.00;99240.78;712810;1206;116243;-86
2021/05/16 13:08:33;;;;;;;12.55;9.80;;;;;;;14.87;100.00;99240.28;712705;1203;115780;-88
2021/05/16 13:24:04;;;;;;;4.93;3.67;;;;;;;14.84;100.00;99234.58;712849;1202;114022;-86
2021/05/16 13:39:27;;;;;;;3.57;3.27;;;;;;;14.78;100.00;99244.88;712731;1202;114088;-81
2021/05/16 13:54:48;;;;;;;34.85;24.35;;;;;;;14.26;100.00;99259.09;712789;1202;114282;-76
2021/05/16 14:10:09;;;;;;;11.83;9.95;;;;;;;13.86;100.00;99262.02;712778;1205;114296;-77
2021/05/16 14:25:30;;;;;;;5.93;4.77;;;;;;;13.65;100.00;99252.19;713193;1204;115143;-78
2021/05/16 14:40:50;;;;;;;14.00;8.50;;;;;;;13.74;100.00;99234.48;712953;1202;114510;-78
2021/05/16 14:56:11;;;;;;;13.93;9.67;;;;;;;14.02;100.00;99210.92;712893;1202;115137;-77
2021/05/16 15:11:32;;;;;;;7.73;5.63;;;;;;;14.14;100.00;99209.44;713007;1203;115055;-76
2021/05/16 15:26:56;;;;;;;57.08;27.63;;;;;;;14.11;100.00;99196.63;713357;1181;114712;-76
2021/05/16 15:42:18;;;;;;;27.93;13.57;;;;;;;14.10;100.00;99175.72;713082;1178;114027;-75
2021/05/16 15:57:38;;;;;;;27.07;14.87;;;;;;;14.13;100.00;99173.54;713343;1202;115429;-74
2021/05/16 16:12:59;;;;;;;13.47;9.10;;;;;;;14.06;100.00;99169.19;713073;1202;115412;-74
2021/05/16 16:28:20;;;;;;;13.70;7.40;;;;;;;14.17;100.00;99176.60;715244;1181;114035;-73
2021/05/16 16:43:41;;;;;;;17.75;9.80;;;;;;;14.28;100.00;99172.69;713428;1202;115059;-76
2021/05/16 16:59:01;;;;;;;12.05;9.68;;;;;;;14.31;100.00;99180.22;712723;1180;113812;-75
2021/05/16 17:14:21;;;;;;;13.28;9.20;;;;;;;14.27;100.00;99171.85;713067;1187;114547;-78
2021/05/16 17:29:43;;;;;;;10.25;7.90;;;;;;;14.13;100.00;99155.08;712808;1204;114926;-76
2021/05/16 17:45:05;;;;;;;5.98;4.83;;;;;;;14.02;100.00;99158.19;712749;1202;115176;-75
2021/05/16 18:00:25;;;;;;;7.07;5.03;;;;;;;13.77;100.00;99158.48;713009;1188;113818;-75
2021/05/16 18:15:46;;;;;;;7.10;5.35;;;;;;;13.59;100.00;99163.31;712923;1206;114441;-77
2021/05/16 18:31:07;;;;;;;4.65;3.45;;;;;;;13.24;100.00;99176.17;712598;1202;113792;-77
2021/05/16 18:46:27;;;;;;;6.20;3.18;;;;;;;12.96;100.00;99184.66;712724;1203;114503;-75
2021/05/16 19:01:48;;;;;;;5.80;3.88;;;;;;;12.89;100.00;99188.98;712859;1203;114588;-73
2021/05/16 19:17:09;;;;;;;7.75;4.63;;;;;;;12.91;100.00;99202.80;712645;1204;115098;-73
2021/05/16 19:32:29;;;;;;;16.43;9.20;;;;;;;12.95;100.00;99206.70;713307;1203;114187;-74
2021/05/16 19:47:52;;;;;;;9.25;5.35;;;;;;;12.82;100.00;99202.83;715205;1202;115410;-73
2021/05/16 20:03:13;;;;;;;30.50;17.45;;;;;;;12.71;100.00;99226.11;713267;1202;114267;-73
2021/05/16 20:18:36;;;;;;;9.40;6.48;;;;;;;12.36;100.00;99223.85;713361;1203;114630;-73
2021/05/16 20:33:56;;;;;;;10.40;6.40;;;;;;;12.34;100.00;99217.13;713741;1203;115139;-74
2021/05/16 20:49:17;;;;;;;7.15;5.40;;;;;;;12.21;100.00;99220.34;713309;1203;115610;-73
2021/05/16 21:04:38;;;;;;;46.95;23.65;;;;;;;12.11;100.00;99231.84;713568;1203;113768;-71
2021/05/16 21:19:58;;;;;;;13.73;8.18;;;;;;;11.82;100.00;99246.40;713407;1180;114475;-73
2021/05/16 21:35:21;;;;;;;8.50;7.50;;;;;;;11.62;100.00;99255.63;713792;1181;114128;-73
2021/05/16 21:50:41;;;;;;;18.15;11.30;;;;;;;11.53;100.00;99267.95;713655;1202;114893;-73
2021/05/16 22:06:02;;;;;;;11.75;9.25;;;;;;;11.40;100.00;99268.48;713477;1203;115833;-73
2021/05/16 22:21:24;;;;;;;10.05;7.83;;;;;;;11.11;100.00;99261.91;713580;1203;114194;-73
2021/05/16 22:36:44;;;;;;;10.90;8.25;;;;;;;11.07;100.00;99257.98;713312;1206;114579;-74
2021/05/16 22:52:05;;;;;;;10.07;7.77;;;;;;;10.86;100.00;99263.70;713965;1202;115137;-74
2021/05/16 23:07:26;;;;;;;8.93;7.65;;;;;;;10.77;100.00;99260.23;713221;1203;114058;-74
2021/05/16 23:22:47;;;;;;;12.60;8.30;;;;;;;10.68;100.00;99255.95;712482;1203;115636;-73
2021/05/16 23:38:07;;;;;;;15.93;10.15;;;;;;;10.40;100.00;99239.64;712414;1182;114109;-74
2021/05/16 23:53:28;;;;;;;15.08;10.50;;;;;;;10.27;100.00;99234.84;712816;1179;114584;-73
